sensor_id;sensor_type;location;lat;lon;timestamp;temperature;humidity
3186;DHT22;1604;53.700;10.252;2022-10-16T00:02:42;13.70;99.90
3186;DHT22;1604;53.700;10.252;2022-10-16T00:05:44;13.70;99.90
3186;DHT22;1604;53.700;10.252;2022-10-16T00:08:46;13.60;99.90
3186;DHT22;1604;53.700;10.252;2022-10-16T00:11:48;13.60;99.90
3186;DHT22;1604;53.700;10.252;2022-10-16T00:14:52;13.60;99.90
3186;DHT22;1604;53.700;10.252;2022-10-16T00:17:54;13.60;99.90
3186;DHT22;1604;53.700;10.252;2022-10-16T00:21:00;13.60;99.90
3186;DHT22;1604;53.700;10.252;2022-10-16T00:24:04;13.60;99.90
3186;DHT22;1604;53.700;10.252;2022-10-16T00:27:07;13.60;99.90
3186;DHT22;1604;53.700;10.252;2022-10-16T00:30:10;13.60;99.90
3186;DHT22;1604;53.700;10.252;2022-10-16T00:33:12;13.60;99.90
3186;DHT22;1604;53.700;10.252;2022-10-16T00:36:16;13.60;99.90
3186;DHT22;1604;53.700;10.252;2022-10-16T00:39:18;13.60;99.90
3186;DHT22;1604;53.700;10.252;2022-10-16T00:42:20;13.60;99.90
3186;DHT22;1604;53.700;10.252;2022-10-16T00:45:23;13.60;99.90
3186;DHT22;1604;53.700;10.252;2022-10-16T00:48:25;13.60;99.90
3186;DHT22;1604;53.700;10.252;2022-10-16T00:51:32;13.50;99.90
3186;DHT22;1604;53.700;10.252;2022-10-16T00:54:35;13.50;99.90
3186;DHT22;1604;53.700;10.252;2022-10-16T00:57:37;13.50;99.90
3186;DHT22;1604;53.700;10.252;2022-10-16T01:00:40;13.50;99.90
3186;DHT22;1604;53.700;10.252;2022-10-16T01:03:42;13.50;99.90
3186;DHT22;1604;53.700;10.252;2022-10-16T01:06:51;13.40;99.90
3186;DHT22;1604;53.700;10.252;2022-10-16T01:10:03;13.40;99.90
3186;DHT22;1604;53.700;10.252;2022-10-16T01:13:10;13.40;99.90
3186;DHT22;1604;53.700;10.252;2022-10-16T01:16:18;13.40;99.90
3186;DHT22;1604;53.700;10.252;2022-10-16T01:19:35;13.40;99.90
3186;DHT22;1604;53.700;10.252;2022-10-16T01:22:47;13.30;99.90
3186;DHT22;1604;53.700;10.252;2022-10-16T01:26:11;13.30;99.90
3186;DHT22;1604;53.700;10.252;2022-10-16T01:29:20;13.30;99.90
3186;DHT22;1604;53.700;10.252;2022-10-16T01:32:31;13.30;99.90
3186;DHT22;1604;53.700;10.252;2022-10-16T01:35:37;13.20;99.90
3186;DHT22;1604;53.700;10.252;2022-10-16T01:38:41;13.20;99.90
3186;DHT22;1604;53.700;10.252;2022-10-16T01:41:47;13.20;99.90
3186;DHT22;1604;53.700;10.252;2022-10-16T01:44:52;13.10;99.90
3186;DHT22;1604;53.700;10.252;2022-10-16T01:47:55;13.10;99.90
3186;DHT22;1604;53.700;10.252;2022-10-16T01:51:01;13.10;99.90
3186;DHT22;1604;53.700;10.252;2022-10-16T01:54:06;13.00;99.90
3186;DHT22;1604;53.700;10.252;2022-10-16T01:57:10;13.00;99.90
3186;DHT22;1604;53.700;10.252;2022-10-16T02:00:17;13.00;99.90
3186;DHT22;1604;53.700;10.252;2022-10-16T02:03:20;12.90;99.90
3186;DHT22;1604;53.700;10.252;2022-10-16T02:06:23;12.90;99.90
3186;DHT22;1604;53.700;10.252;2022-10-16T02:09:25;12.80;99.90
3186;DHT22;1604;53.700;10.252;2022-10-16T02:12:31;12.80;99.90
3186;DHT22;1604;53.700;10.252;2022-10-16T02:15:36;12.80;99.90
3186;DHT22;1604;53.700;10.252;2022-10-16T02:18:38;12.80;99.90
3186;DHT22;1604;53.700;10.252;2022-10-16T02:21:43;12.70;99.90
3186;DHT22;1604;53.700;10.252;2022-10-16T02:24:51;12.70;99.90
3186;DHT22;1604;53.700;10.252;2022-10-16T02:27:57;12.70;99.90
3186;DHT22;1604;53.700;10.252;2022-10-16T02:31:05;12.70;99.90
3186;DHT22;1604;53.700;10.252;2022-10-16T02:34:11;12.70;99.90
3186;DHT22;1604;53.700;10.252;2022-10-16T02:37:14;12.70;99.90
3186;DHT22;1604;53.700;10.252;2022-10-16T02:40:17;12.70;99.90
3186;DHT22;1604;53.700;10.252;2022-10-16T02:43:19;12.60;99.90
3186;DHT22;1604;53.700;10.252;2022-10-16T02:46:24;12.60;99.90
3186;DHT22;1604;53.700;10.252;2022-10-16T02:49:26;12.60;99.90
3186;DHT22;1604;53.700;10.252;2022-10-16T02:52:27;12.60;99.90
3186;DHT22;1604;53.700;10.252;2022-10-16T02:55:29;12.60;99.90
3186;DHT22;1604;53.700;10.252;2022-10-16T02:58:31;12.60;99.90
3186;DHT22;1604;53.700;10.252;2022-10-16T03:01:34;12.50;99.90
3186;DHT22;1604;53.700;10.252;2022-10-16T03:04:37;12.50;99.90
3186;DHT22;1604;53.700;10.252;2022-10-16T03:07:39;12.40;99.90
3186;DHT22;1604;53.700;10.252;2022-10-16T03:10:41;12.40;99.90
3186;DHT22;1604;53.700;10.252;2022-10-16T03:13:42;12.40;99.90
3186;DHT22;1604;53.700;10.252;2022-10-16T03:16:46;12.30;99.90
3186;DHT22;1604;53.700;10.252;2022-10-16T03:19:47;12.30;99.90
3186;DHT22;1604;53.700;10.252;2022-10-16T03:22:50;12.20;99.90
3186;DHT22;1604;53.700;10.252;2022-10-16T03:25:51;12.20;99.90
3186;DHT22;1604;53.700;10.252;2022-10-16T03:28:54;12.20;99.90
3186;DHT22;1604;53.700;10.252;2022-10-16T03:31:57;12.20;99.90
3186;DHT22;1604;53.700;10.252;2022-10-16T03:34:59;12.10;99.90
3186;DHT22;1604;53.700;10.252;2022-10-16T03:38:01;12.10;99.90
3186;DHT22;1604;53.700;10.252;2022-10-16T03:41:03;12.10;99.90
3186;DHT22;1604;53.700;10.252;2022-10-16T03:44:05;12.10;99.90
3186;DHT22;1604;53.700;10.252;2022-10-16T03:47:08;12.10;99.90
3186;DHT22;1604;53.700;10.252;2022-10-16T03:50:10;12.00;99.90
3186;DHT22;1604;53.700;10.252;2022-10-16T03:53:12;12.00;99.90
3186;DHT22;1604;53.700;10.252;2022-10-16T03:56:14;12.00;99.90
3186;DHT22;1604;53.700;10.252;2022-10-16T03:59:16;12.00;99.90
3186;DHT22;1604;53.700;10.252;2022-10-16T04:02:19;12.00;99.90
3186;DHT22;1604;53.700;10.252;2022-10-16T04:05:21;11.90;99.90
3186;DHT22;1604;53.700;10.252;2022-10-16T04:08:23;11.90;99.90
3186;DHT22;1604;53.700;10.252;2022-10-16T04:11:24;11.90;99.90
3186;DHT22;1604;53.700;10.252;2022-10-16T04:14:26;11.90;99.90
3186;DHT22;1604;53.700;10.252;2022-10-16T04:17:29;11.90;99.90
3186;DHT22;1604;53.700;10.252;2022-10-16T04:20:31;11.90;99.90
3186;DHT22;1604;53.700;10.252;2022-10-16T04:23:33;11.90;99.90
3186;DHT22;1604;53.700;10.252;2022-10-16T04:26:35;11.90;99.90
3186;DHT22;1604;53.700;10.252;2022-10-16T04:29:37;11.90;99.90
3186;DHT22;1604;53.700;10.252;2022-10-16T04:32:40;11.80;99.90
3186;DHT22;1604;53.700;10.252;2022-10-16T04:35:42;11.80;99.90
3186;DHT22;1604;53.700;10.252;2022-10-16T04:38:44;11.70;99.90
3186;DHT22;1604;53.700;10.252;2022-10-16T04:41:46;11.70;99.90
3186;DHT22;1604;53.700;10.252;2022-10-16T04:44:48;11.70;99.90
3186;DHT22;1604;53.700;10.252;2022-10-16T04:47:51;11.70;99.90
3186;DHT22;1604;53.700;10.252;2022-10-16T04:50:53;11.70;99.90
3186;DHT22;1604;53.700;10.252;2022-10-16T04:53:55;11.70;99.90
3186;DHT22;1604;53.700;10.252;2022-10-16T04:56:58;11.60;99.90
3186;DHT22;1604;53.700;10.252;2022-10-16T05:00:00;11.60;99.90
3186;DHT22;1604;53.700;10.252;2022-10-16T05:03:04;11.60;99.90
3186;DHT22;1604;53.700;10.252;2022-10-16T05:06:09;11.60;99.90
3186;DHT22;1604;53.700;10.252;2022-10-16T05:09:11;11.60;99.90
3186;DHT22;1604;53.700;10.252;2022-10-16T05:12:12;11.60;99.90
3186;DHT22;1604;53.700;10.252;2022-10-16T05:15:14;11.60;99.90
3186;DHT22;1604;53.700;10.252;2022-10-16T05:18:18;11.60;99.90
3186;DHT22;1604;53.700;10.252;2022-10-16T05:21:20;11.50;99.90
3186;DHT22;1604;53.700;10.252;2022-10-16T05:24:22;11.50;99.90
3186;DHT22;1604;53.700;10.252;2022-10-16T05:27:24;11.50;99.90
3186;DHT22;1604;53.700;10.252;2022-10-16T05:30:26;11.50;99.90
3186;DHT22;1604;53.700;10.252;2022-10-16T05:33:29;11.50;99.90
3186;DHT22;1604;53.700;10.252;2022-10-16T05:36:31;11.50;99.90
3186;DHT22;1604;53.700;10.252;2022-10-16T05:39:33;11.40;99.90
3186;DHT22;1604;53.700;10.252;2022-10-16T05:42:35;11.50;99.90
3186;DHT22;1604;53.700;10.252;2022-10-16T05:45:37;11.50;99.90
3186;DHT22;1604;53.700;10.252;2022-10-16T05:48:40;11.50;99.90
3186;DHT22;1604;53.700;10.252;2022-10-16T05:51:42;11.50;99.90
3186;DHT22;1604;53.700;10.252;2022-10-16T05:54:44;11.60;99.90
3186;DHT22;1604;53.700;10.252;2022-10-16T05:57:49;11.60;99.90
3186;DHT22;1604;53.700;10.252;2022-10-16T06:00:55;11.60;99.90
3186;DHT22;1604;53.700;10.252;2022-10-16T06:03:58;11.60;99.90
3186;DHT22;1604;53.700;10.252;2022-10-16T06:07:00;11.50;99.90
3186;DHT22;1604;53.700;10.252;2022-10-16T06:10:03;11.50;99.90
3186;DHT22;1604;53.700;10.252;2022-10-16T06:13:05;11.50;99.90
3186;DHT22;1604;53.700;10.252;2022-10-16T06:16:08;11.50;99.90
3186;DHT22;1604;53.700;10.252;2022-10-16T06:19:11;11.50;99.90
3186;DHT22;1604;53.700;10.252;2022-10-16T06:22:13;11.60;99.90
3186;DHT22;1604;53.700;10.252;2022-10-16T06:25:15;11.60;99.90
3186;DHT22;1604;53.700;10.252;2022-10-16T06:28:17;11.70;99.90
3186;DHT22;1604;53.700;10.252;2022-10-16T06:31:19;11.70;99.90
3186;DHT22;1604;53.700;10.252;2022-10-16T06:34:22;11.80;99.90
3186;DHT22;1604;53.700;10.252;2022-10-16T06:37:24;11.90;99.90
3186;DHT22;1604;53.700;10.252;2022-10-16T06:40:26;11.90;99.90
3186;DHT22;1604;53.700;10.252;2022-10-16T06:43:29;11.90;99.90
3186;DHT22;1604;53.700;10.252;2022-10-16T06:46:32;11.90;99.90
3186;DHT22;1604;53.700;10.252;2022-10-16T06:49:35;11.90;99.90
3186;DHT22;1604;53.700;10.252;2022-10-16T06:52:37;12.00;99.90
3186;DHT22;1604;53.700;10.252;2022-10-16T06:55:39;12.10;99.90
3186;DHT22;1604;53.700;10.252;2022-10-16T06:58:41;12.10;99.90
3186;DHT22;1604;53.700;10.252;2022-10-16T07:01:44;12.20;99.90
3186;DHT22;1604;53.700;10.252;2022-10-16T07:04:47;12.30;99.90
3186;DHT22;1604;53.700;10.252;2022-10-16T07:07:49;12.40;99.90
3186;DHT22;1604;53.700;10.252;2022-10-16T07:10:59;12.60;99.90
3186;DHT22;1604;53.700;10.252;2022-10-16T07:14:01;12.70;99.90
3186;DHT22;1604;53.700;10.252;2022-10-16T07:17:03;12.90;99.90
3186;DHT22;1604;53.700;10.252;2022-10-16T07:20:07;13.10;99.90
3186;DHT22;1604;53.700;10.252;2022-10-16T07:23:09;13.30;99.90
3186;DHT22;1604;53.700;10.252;2022-10-16T07:26:11;13.60;99.90
3186;DHT22;1604;53.700;10.252;2022-10-16T07:29:15;13.70;99.90
3186;DHT22;1604;53.700;10.252;2022-10-16T07:32:17;13.90;99.90
3186;DHT22;1604;53.700;10.252;2022-10-16T07:35:20;14.10;99.90
3186;DHT22;1604;53.700;10.252;2022-10-16T07:38:22;14.30;99.90
3186;DHT22;1604;53.700;10.252;2022-10-16T07:41:25;14.40;99.90
3186;DHT22;1604;53.700;10.252;2022-10-16T07:44:27;14.50;99.90
3186;DHT22;1604;53.700;10.252;2022-10-16T07:47:29;14.60;99.90
3186;DHT22;1604;53.700;10.252;2022-10-16T07:50:32;14.60;99.90
3186;DHT22;1604;53.700;10.252;2022-10-16T07:53:34;14.60;99.90
3186;DHT22;1604;53.700;10.252;2022-10-16T07:56:36;14.60;99.90
3186;DHT22;1604;53.700;10.252;2022-10-16T07:59:38;14.50;99.90
3186;DHT22;1604;53.700;10.252;2022-10-16T08:02:40;14.50;99.90
3186;DHT22;1604;53.700;10.252;2022-10-16T08:05:44;14.50;99.90
3186;DHT22;1604;53.700;10.252;2022-10-16T08:08:46;14.60;99.90
3186;DHT22;1604;53.700;10.252;2022-10-16T08:11:48;14.60;99.90
3186;DHT22;1604;53.700;10.252;2022-10-16T08:14:50;14.60;99.90
3186;DHT22;1604;53.700;10.252;2022-10-16T08:17:56;14.50;99.90
3186;DHT22;1604;53.700;10.252;2022-10-16T08:21:00;14.50;99.90
3186;DHT22;1604;53.700;10.252;2022-10-16T08:24:02;14.50;99.90
3186;DHT22;1604;53.700;10.252;2022-10-16T08:27:04;14.40;99.90
3186;DHT22;1604;53.700;10.252;2022-10-16T08:30:08;14.50;99.90
3186;DHT22;1604;53.700;10.252;2022-10-16T08:33:11;14.50;99.90
3186;DHT22;1604;53.700;10.252;2022-10-16T08:36:15;14.60;99.90
3186;DHT22;1604;53.700;10.252;2022-10-16T08:39:17;14.70;99.90
3186;DHT22;1604;53.700;10.252;2022-10-16T08:42:28;14.80;99.90
3186;DHT22;1604;53.700;10.252;2022-10-16T08:49:11;14.90;99.90
3186;DHT22;1604;53.700;10.252;2022-10-16T08:52:16;15.00;99.90
3186;DHT22;1604;53.700;10.252;2022-10-16T08:55:30;15.00;99.90
3186;DHT22;1604;53.700;10.252;2022-10-16T08:58:34;15.00;99.90
3186;DHT22;1604;53.700;10.252;2022-10-16T09:01:38;15.10;99.90
3186;DHT22;1604;53.700;10.252;2022-10-16T09:04:51;15.20;99.90
3186;DHT22;1604;53.700;10.252;2022-10-16T09:08:03;15.20;99.90
3186;DHT22;1604;53.700;10.252;2022-10-16T09:11:11;15.40;99.90
3186;DHT22;1604;53.700;10.252;2022-10-16T09:14:39;15.40;99.90
3186;DHT22;1604;53.700;10.252;2022-10-16T09:17:49;15.40;99.90
3186;DHT22;1604;53.700;10.252;2022-10-16T09:20:59;15.50;99.90
3186;DHT22;1604;53.700;10.252;2022-10-16T09:24:11;15.70;99.90
3186;DHT22;1604;53.700;10.252;2022-10-16T09:27:14;15.80;99.90
3186;DHT22;1604;53.700;10.252;2022-10-16T09:30:18;15.90;99.80
3186;DHT22;1604;53.700;10.252;2022-10-16T09:33:22;16.00;99.70
3186;DHT22;1604;53.700;10.252;2022-10-16T09:36:26;16.10;99.50
3186;DHT22;1604;53.700;10.252;2022-10-16T09:39:30;16.10;99.60
3186;DHT22;1604;53.700;10.252;2022-10-16T09:42:35;16.20;99.60
3186;DHT22;1604;53.700;10.252;2022-10-16T09:45:37;16.10;99.70
3186;DHT22;1604;53.700;10.252;2022-10-16T09:48:44;16.10;99.60
3186;DHT22;1604;53.700;10.252;2022-10-16T09:51:46;16.20;99.70
3186;DHT22;1604;53.700;10.252;2022-10-16T09:54:51;16.30;99.30
3186;DHT22;1604;53.700;10.252;2022-10-16T09:57:54;16.30;99.40
3186;DHT22;1604;53.700;10.252;2022-10-16T10:00:56;16.30;99.40
3186;DHT22;1604;53.700;10.252;2022-10-16T10:03:59;16.50;99.10
3186;DHT22;1604;53.700;10.252;2022-10-16T10:07:04;16.60;98.50
3186;DHT22;1604;53.700;10.252;2022-10-16T10:10:21;16.70;98.40
3186;DHT22;1604;53.700;10.252;2022-10-16T10:13:24;16.70;98.70
3186;DHT22;1604;53.700;10.252;2022-10-16T10:16:27;16.80;98.60
3186;DHT22;1604;53.700;10.252;2022-10-16T10:19:29;16.90;98.00
3186;DHT22;1604;53.700;10.252;2022-10-16T10:22:40;16.90;98.00
3186;DHT22;1604;53.700;10.252;2022-10-16T10:25:51;17.00;97.70
3186;DHT22;1604;53.700;10.252;2022-10-16T10:29:00;17.20;97.00
3186;DHT22;1604;53.700;10.252;2022-10-16T10:32:13;17.30;96.60
3186;DHT22;1604;53.700;10.252;2022-10-16T10:35:22;17.30;97.10
3186;DHT22;1604;53.700;10.252;2022-10-16T10:38:33;17.30;97.00
3186;DHT22;1604;53.700;10.252;2022-10-16T10:42:11;17.40;96.70
3186;DHT22;1604;53.700;10.252;2022-10-16T10:45:18;17.60;96.70
3186;DHT22;1604;53.700;10.252;2022-10-16T10:48:46;17.70;96.60
3186;DHT22;1604;53.700;10.252;2022-10-16T10:51:57;17.80;96.10
3186;DHT22;1604;53.700;10.252;2022-10-16T10:55:10;17.90;96.40
3186;DHT22;1604;53.700;10.252;2022-10-16T11:01:53;18.10;95.20
3186;DHT22;1604;53.700;10.252;2022-10-16T11:05:35;18.20;94.20
3186;DHT22;1604;53.700;10.252;2022-10-16T11:08:45;18.30;94.20
3186;DHT22;1604;53.700;10.252;2022-10-16T11:11:52;18.40;92.80
3186;DHT22;1604;53.700;10.252;2022-10-16T11:15:07;18.60;92.40
3186;DHT22;1604;53.700;10.252;2022-10-16T11:18:17;18.70;92.40
3186;DHT22;1604;53.700;10.252;2022-10-16T11:21:21;19.00;91.30
3186;DHT22;1604;53.700;10.252;2022-10-16T11:24:33;19.10;90.80
3186;DHT22;1604;53.700;10.252;2022-10-16T11:27:40;19.20;90.00
3186;DHT22;1604;53.700;10.252;2022-10-16T11:30:47;19.30;89.70
3186;DHT22;1604;53.700;10.252;2022-10-16T11:33:56;19.60;88.50
3186;DHT22;1604;53.700;10.252;2022-10-16T11:37:05;19.60;87.80
3186;DHT22;1604;53.700;10.252;2022-10-16T11:40:19;19.80;86.10
3186;DHT22;1604;53.700;10.252;2022-10-16T11:43:27;19.70;85.80
3186;DHT22;1604;53.700;10.252;2022-10-16T11:46:34;19.70;83.10
3186;DHT22;1604;53.700;10.252;2022-10-16T11:49:39;19.50;84.20
3186;DHT22;1604;53.700;10.252;2022-10-16T11:52:46;19.40;86.20
3186;DHT22;1604;53.700;10.252;2022-10-16T11:55:50;19.50;86.80
3186;DHT22;1604;53.700;10.252;2022-10-16T11:58:56;19.50;87.10
3186;DHT22;1604;53.700;10.252;2022-10-16T12:02:25;19.60;86.90
3186;DHT22;1604;53.700;10.252;2022-10-16T12:05:35;19.50;86.40
3186;DHT22;1604;53.700;10.252;2022-10-16T12:08:39;19.50;87.10
3186;DHT22;1604;53.700;10.252;2022-10-16T12:11:41;19.40;85.30
3186;DHT22;1604;53.700;10.252;2022-10-16T12:14:43;19.40;85.30
3186;DHT22;1604;53.700;10.252;2022-10-16T12:17:47;19.50;85.00
3186;DHT22;1604;53.700;10.252;2022-10-16T12:20:55;19.60;84.60
3186;DHT22;1604;53.700;10.252;2022-10-16T12:24:03;19.80;81.40
3186;DHT22;1604;53.700;10.252;2022-10-16T12:27:16;19.80;81.20
3186;DHT22;1604;53.700;10.252;2022-10-16T12:30:23;19.80;82.60
3186;DHT22;1604;53.700;10.252;2022-10-16T12:33:29;19.90;81.10
3186;DHT22;1604;53.700;10.252;2022-10-16T12:36:33;19.80;82.70
3186;DHT22;1604;53.700;10.252;2022-10-16T12:39:36;19.70;80.90
3186;DHT22;1604;53.700;10.252;2022-10-16T12:42:38;19.60;80.00
3186;DHT22;1604;53.700;10.252;2022-10-16T12:45:40;19.60;78.70
3186;DHT22;1604;53.700;10.252;2022-10-16T12:48:44;19.60;79.10
3186;DHT22;1604;53.700;10.252;2022-10-16T12:51:48;19.60;79.70
3186;DHT22;1604;53.700;10.252;2022-10-16T12:54:51;19.70;80.50
3186;DHT22;1604;53.700;10.252;2022-10-16T12:58:21;19.90;78.80
3186;DHT22;1604;53.700;10.252;2022-10-16T13:01:37;19.90;79.00
3186;DHT22;1604;53.700;10.252;2022-10-16T13:05:12;19.90;77.80
3186;DHT22;1604;53.700;10.252;2022-10-16T13:08:38;19.70;79.30
3186;DHT22;1604;53.700;10.252;2022-10-16T13:11:52;19.60;80.00
3186;DHT22;1604;53.700;10.252;2022-10-16T13:15:21;19.30;79.70
3186;DHT22;1604;53.700;10.252;2022-10-16T13:18:28;19.10;80.60
3186;DHT22;1604;53.700;10.252;2022-10-16T13:21:42;18.90;79.10
3186;DHT22;1604;53.700;10.252;2022-10-16T13:24:56;18.70;78.50
3186;DHT22;1604;53.700;10.252;2022-10-16T13:28:00;18.60;79.70
3186;DHT22;1604;53.700;10.252;2022-10-16T13:31:02;18.50;81.30
3186;DHT22;1604;53.700;10.252;2022-10-16T13:34:05;18.70;80.10
3186;DHT22;1604;53.700;10.252;2022-10-16T13:37:19;18.70;80.20
3186;DHT22;1604;53.700;10.252;2022-10-16T13:40:22;18.70;81.40
3186;DHT22;1604;53.700;10.252;2022-10-16T13:43:27;18.70;82.30
3186;DHT22;1604;53.700;10.252;2022-10-16T13:46:30;18.70;82.10
3186;DHT22;1604;53.700;10.252;2022-10-16T13:49:34;18.70;82.40
3186;DHT22;1604;53.700;10.252;2022-10-16T13:52:38;18.60;83.40
3186;DHT22;1604;53.700;10.252;2022-10-16T13:55:40;18.50;84.90
3186;DHT22;1604;53.700;10.252;2022-10-16T13:58:42;18.50;86.20
3186;DHT22;1604;53.700;10.252;2022-10-16T14:01:45;18.50;85.90
3186;DHT22;1604;53.700;10.252;2022-10-16T14:04:47;18.60;86.30
3186;DHT22;1604;53.700;10.252;2022-10-16T14:07:52;18.60;86.50
3186;DHT22;1604;53.700;10.252;2022-10-16T14:10:57;18.70;87.00
3186;DHT22;1604;53.700;10.252;2022-10-16T14:14:00;18.70;87.00
3186;DHT22;1604;53.700;10.252;2022-10-16T14:17:03;18.60;85.60
3186;DHT22;1604;53.700;10.252;2022-10-16T14:20:06;18.60;85.60
3186;DHT22;1604;53.700;10.252;2022-10-16T14:23:23;18.60;84.90
3186;DHT22;1604;53.700;10.252;2022-10-16T14:26:41;18.50;86.40
3186;DHT22;1604;53.700;10.252;2022-10-16T14:29:43;18.60;84.70
3186;DHT22;1604;53.700;10.252;2022-10-16T14:32:54;18.50;84.20
3186;DHT22;1604;53.700;10.252;2022-10-16T14:36:02;18.50;83.40
3186;DHT22;1604;53.700;10.252;2022-10-16T14:39:15;18.40;84.40
3186;DHT22;1604;53.700;10.252;2022-10-16T14:42:20;18.40;83.90
3186;DHT22;1604;53.700;10.252;2022-10-16T14:45:28;18.40;83.50
3186;DHT22;1604;53.700;10.252;2022-10-16T14:48:30;18.30;84.40
3186;DHT22;1604;53.700;10.252;2022-10-16T14:51:32;18.20;84.60
3186;DHT22;1604;53.700;10.252;2022-10-16T14:54:35;18.00;85.30
3186;DHT22;1604;53.700;10.252;2022-10-16T14:57:38;17.90;85.60
3186;DHT22;1604;53.700;10.252;2022-10-16T15:00:41;17.90;86.40
3186;DHT22;1604;53.700;10.252;2022-10-16T15:03:43;17.80;87.50
3186;DHT22;1604;53.700;10.252;2022-10-16T15:06:45;17.80;87.30
3186;DHT22;1604;53.700;10.252;2022-10-16T15:09:48;17.80;87.50
3186;DHT22;1604;53.700;10.252;2022-10-16T15:12:51;17.70;88.50
3186;DHT22;1604;53.700;10.252;2022-10-16T15:15:54;17.60;88.60
3186;DHT22;1604;53.700;10.252;2022-10-16T15:18:55;17.60;88.20
3186;DHT22;1604;53.700;10.252;2022-10-16T15:21:57;17.50;88.40
3186;DHT22;1604;53.700;10.252;2022-10-16T15:25:00;17.40;88.10
3186;DHT22;1604;53.700;10.252;2022-10-16T15:28:04;17.30;88.00
3186;DHT22;1604;53.700;10.252;2022-10-16T15:31:06;17.20;88.90
3186;DHT22;1604;53.700;10.252;2022-10-16T15:34:08;17.10;89.00
3186;DHT22;1604;53.700;10.252;2022-10-16T15:37:10;17.10;89.40
3186;DHT22;1604;53.700;10.252;2022-10-16T15:40:16;17.00;90.40
3186;DHT22;1604;53.700;10.252;2022-10-16T15:43:18;16.90;90.80
3186;DHT22;1604;53.700;10.252;2022-10-16T15:46:21;16.80;91.20
3186;DHT22;1604;53.700;10.252;2022-10-16T15:49:23;16.70;91.20
3186;DHT22;1604;53.700;10.252;2022-10-16T15:52:25;16.60;91.90
3186;DHT22;1604;53.700;10.252;2022-10-16T15:55:30;16.50;92.50
3186;DHT22;1604;53.700;10.252;2022-10-16T15:58:32;16.50;92.80
3186;DHT22;1604;53.700;10.252;2022-10-16T16:01:34;16.40;93.30
3186;DHT22;1604;53.700;10.252;2022-10-16T16:04:36;16.30;93.30
3186;DHT22;1604;53.700;10.252;2022-10-16T16:07:39;16.20;93.80
3186;DHT22;1604;53.700;10.252;2022-10-16T16:10:42;16.10;94.20
3186;DHT22;1604;53.700;10.252;2022-10-16T16:13:44;16.00;94.60
3186;DHT22;1604;53.700;10.252;2022-10-16T16:16:46;15.90;95.10
3186;DHT22;1604;53.700;10.252;2022-10-16T16:19:48;15.80;95.50
3186;DHT22;1604;53.700;10.252;2022-10-16T16:22:49;15.70;95.70
3186;DHT22;1604;53.700;10.252;2022-10-16T16:26:05;15.70;96.10
3186;DHT22;1604;53.700;10.252;2022-10-16T16:29:09;15.60;96.40
3186;DHT22;1604;53.700;10.252;2022-10-16T16:32:16;15.50;96.90
3186;DHT22;1604;53.700;10.252;2022-10-16T16:35:20;15.40;97.10
3186;DHT22;1604;53.700;10.252;2022-10-16T16:38:26;15.30;97.30
3186;DHT22;1604;53.700;10.252;2022-10-16T16:41:29;15.20;97.50
3186;DHT22;1604;53.700;10.252;2022-10-16T16:44:32;15.20;97.70
3186;DHT22;1604;53.700;10.252;2022-10-16T16:47:33;15.10;97.90
3186;DHT22;1604;53.700;10.252;2022-10-16T16:50:35;15.00;98.10
3186;DHT22;1604;53.700;10.252;2022-10-16T16:53:37;14.90;98.30
3186;DHT22;1604;53.700;10.252;2022-10-16T16:56:41;14.80;98.50
3186;DHT22;1604;53.700;10.252;2022-10-16T16:59:44;14.70;98.50
3186;DHT22;1604;53.700;10.252;2022-10-16T17:02:52;14.60;98.80
3186;DHT22;1604;53.700;10.252;2022-10-16T17:05:56;14.60;98.90
3186;DHT22;1604;53.700;10.252;2022-10-16T17:09:02;14.50;99.10
3186;DHT22;1604;53.700;10.252;2022-10-16T17:12:06;14.40;99.30
3186;DHT22;1604;53.700;10.252;2022-10-16T17:15:09;14.30;99.50
3186;DHT22;1604;53.700;10.252;2022-10-16T17:18:16;14.20;99.60
3186;DHT22;1604;53.700;10.252;2022-10-16T17:21:18;14.10;99.80
3186;DHT22;1604;53.700;10.252;2022-10-16T17:24:23;14.00;99.90
3186;DHT22;1604;53.700;10.252;2022-10-16T17:27:26;13.90;99.90
3186;DHT22;1604;53.700;10.252;2022-10-16T17:30:30;13.80;99.90
3186;DHT22;1604;53.700;10.252;2022-10-16T17:33:33;13.80;99.90
3186;DHT22;1604;53.700;10.252;2022-10-16T17:36:39;13.70;99.90
3186;DHT22;1604;53.700;10.252;2022-10-16T17:39:43;13.60;99.90
3186;DHT22;1604;53.700;10.252;2022-10-16T17:42:46;13.50;99.90
3186;DHT22;1604;53.700;10.252;2022-10-16T17:45:48;13.50;99.90
3186;DHT22;1604;53.700;10.252;2022-10-16T17:48:52;13.40;99.90
3186;DHT22;1604;53.700;10.252;2022-10-16T17:51:54;13.30;99.90
3186;DHT22;1604;53.700;10.252;2022-10-16T17:54:58;13.20;99.90
3186;DHT22;1604;53.700;10.252;2022-10-16T17:58:01;13.10;99.90
3186;DHT22;1604;53.700;10.252;2022-10-16T18:01:12;13.00;99.90
3186;DHT22;1604;53.700;10.252;2022-10-16T18:04:17;13.00;99.90
3186;DHT22;1604;53.700;10.252;2022-10-16T18:07:24;12.90;99.90
3186;DHT22;1604;53.700;10.252;2022-10-16T18:10:26;12.80;99.90
3186;DHT22;1604;53.700;10.252;2022-10-16T18:13:30;12.70;99.90
3186;DHT22;1604;53.700;10.252;2022-10-16T18:16:32;12.60;99.90
3186;DHT22;1604;53.700;10.252;2022-10-16T18:19:35;12.60;99.90
3186;DHT22;1604;53.700;10.252;2022-10-16T18:22:37;12.50;99.90
3186;DHT22;1604;53.700;10.252;2022-10-16T18:25:39;12.40;99.90
3186;DHT22;1604;53.700;10.252;2022-10-16T18:28:42;12.30;99.90
3186;DHT22;1604;53.700;10.252;2022-10-16T18:31:44;12.30;99.90
3186;DHT22;1604;53.700;10.252;2022-10-16T18:34:46;12.20;99.90
3186;DHT22;1604;53.700;10.252;2022-10-16T18:37:48;12.10;99.90
3186;DHT22;1604;53.700;10.252;2022-10-16T18:40:51;12.10;99.90
3186;DHT22;1604;53.700;10.252;2022-10-16T18:43:54;12.00;99.90
3186;DHT22;1604;53.700;10.252;2022-10-16T18:46:56;11.90;99.90
3186;DHT22;1604;53.700;10.252;2022-10-16T18:49:58;11.90;99.90
3186;DHT22;1604;53.700;10.252;2022-10-16T18:53:00;11.80;99.90
3186;DHT22;1604;53.700;10.252;2022-10-16T18:56:02;11.70;99.90
3186;DHT22;1604;53.700;10.252;2022-10-16T18:59:07;11.60;99.90
3186;DHT22;1604;53.700;10.252;2022-10-16T19:02:10;11.60;99.90
3186;DHT22;1604;53.700;10.252;2022-10-16T19:05:12;11.50;99.90
3186;DHT22;1604;53.700;10.252;2022-10-16T19:08:14;11.50;99.90
3186;DHT22;1604;53.700;10.252;2022-10-16T19:11:18;11.40;99.90
3186;DHT22;1604;53.700;10.252;2022-10-16T19:14:21;11.40;99.90
3186;DHT22;1604;53.700;10.252;2022-10-16T19:17:24;11.40;99.90
3186;DHT22;1604;53.700;10.252;2022-10-16T19:20:29;11.30;99.90
3186;DHT22;1604;53.700;10.252;2022-10-16T19:23:31;11.30;99.90
3186;DHT22;1604;53.700;10.252;2022-10-16T19:26:34;11.30;99.90
3186;DHT22;1604;53.700;10.252;2022-10-16T19:29:37;11.20;99.90
3186;DHT22;1604;53.700;10.252;2022-10-16T19:32:39;11.20;99.90
3186;DHT22;1604;53.700;10.252;2022-10-16T19:35:40;11.10;99.90
3186;DHT22;1604;53.700;10.252;2022-10-16T19:38:43;11.10;99.90
3186;DHT22;1604;53.700;10.252;2022-10-16T19:41:45;11.00;99.90
3186;DHT22;1604;53.700;10.252;2022-10-16T19:44:49;11.00;99.90
3186;DHT22;1604;53.700;10.252;2022-10-16T19:47:51;10.90;99.90
3186;DHT22;1604;53.700;10.252;2022-10-16T19:50:53;10.90;99.90
3186;DHT22;1604;53.700;10.252;2022-10-16T19:53:58;10.80;99.90